createdAt,value
2022-11-14T00:03:00.944Z,74.97
2022-11-14T00:06:07.694Z,68.50
2022-11-14T00:09:13.003Z,69.27
2022-11-14T00:12:20.105Z,78.20
2022-11-14T00:15:26.837Z,75.50
2022-11-14T00:18:32.430Z,74.53
2022-11-14T00:21:38.941Z,75.87
2022-11-14T00:24:45.038Z,66.80
2022-11-14T00:27:51.552Z,69.73
2022-11-14T00:30:57.209Z,70.90
2022-11-14T00:34:02.860Z,75.60
2022-11-14T00:37:08.382Z,71.70
2022-11-14T00:40:14.861Z,82.83
2022-11-14T00:43:21.766Z,73.37
2022-11-14T00:46:27.403Z,85.30
2022-11-14T00:49:33.220Z,73.97
2022-11-14T00:52:39.895Z,70.23
2022-11-14T00:55:45.241Z,82.33
2022-11-14T00:58:52.144Z,76.43
2022-11-14T01:01:58.152Z,76.60
2022-11-14T01:05:03.877Z,82.40
2022-11-14T01:08:09.244Z,64.80
2022-11-14T01:11:18.456Z,83.13
2022-11-14T01:14:24.918Z,74.37
2022-11-14T01:17:30.571Z,81.33
2022-11-14T01:20:36.253Z,86.83
2022-11-14T01:23:41.710Z,72.07
2022-11-14T01:26:47.512Z,80.50
2022-11-14T01:29:54.249Z,79.73
2022-11-14T01:33:00.018Z,94.40
2022-11-14T01:36:06.237Z,92.47
2022-11-14T01:39:11.580Z,80.07
2022-11-14T01:42:17.784Z,86.93
2022-11-14T01:45:54.306Z,75.80
2022-11-14T01:49:04.622Z,84.33
2022-11-14T01:52:15.023Z,74.07
2022-11-14T01:55:20.873Z,92.23
2022-11-14T01:58:27.390Z,82.10
2022-11-14T02:01:37.143Z,84.13
2022-11-14T02:04:48.275Z,89.50
2022-11-14T02:07:53.978Z,75.27
2022-11-14T02:10:59.345Z,77.07
2022-11-14T02:14:05.520Z,79.67
2022-11-14T02:17:30.096Z,80.70
2022-11-14T02:20:43.360Z,102.53
2022-11-14T02:23:48.864Z,82.40
2022-11-14T02:26:54.757Z,88.33
2022-11-14T02:30:06.404Z,78.37
2022-11-14T02:33:12.075Z,85.10
2022-11-14T02:36:19.061Z,88.40
2022-11-14T02:39:25.316Z,79.77
2022-11-14T02:42:31.016Z,79.07
2022-11-14T02:45:36.688Z,89.53
2022-11-14T02:48:42.424Z,85.63
2022-11-14T02:51:49.287Z,78.63
2022-11-14T02:54:54.993Z,79.73
2022-11-14T02:58:00.690Z,86.20
2022-11-14T03:01:20.236Z,89.17
2022-11-14T03:04:26.472Z,73.80
2022-11-14T03:07:34.019Z,100.93
2022-11-14T03:10:39.583Z,93.40
2022-11-14T03:13:45.144Z,85.53
2022-11-14T03:16:50.910Z,80.80
2022-11-14T03:19:56.456Z,86.80
2022-11-14T03:23:03.573Z,93.80
2022-11-14T03:26:10.350Z,95.47
2022-11-14T03:29:15.916Z,87.07
2022-11-14T03:32:20.934Z,93.50
2022-11-14T03:35:26.386Z,92.13
2022-11-14T03:38:34.571Z,88.67
2022-11-14T03:41:40.342Z,84.80
2022-11-14T03:44:46.004Z,82.37
2022-11-14T03:47:51.750Z,94.13
2022-11-14T03:50:57.931Z,90.67
2022-11-14T03:54:11.448Z,81.03
2022-11-14T03:57:17.550Z,84.73
2022-11-14T04:00:28.067Z,89.30
2022-11-14T04:03:36.970Z,81.90
2022-11-14T04:06:42.672Z,92.07
2022-11-14T04:09:49.981Z,99.80
2022-11-14T04:12:56.972Z,88.47
2022-11-14T04:16:02.445Z,86.17
2022-11-14T04:19:08.183Z,89.90
2022-11-14T04:22:14.187Z,88.70
2022-11-14T04:25:21.220Z,89.87
2022-11-14T04:28:26.921Z,88.60
2022-11-14T04:31:32.284Z,81.60
2022-11-14T04:34:38.045Z,98.07
2022-11-14T04:37:43.968Z,85.10
2022-11-14T04:40:51.934Z,90.20
2022-11-14T04:43:57.372Z,91.03
2022-11-14T04:47:02.283Z,85.00
2022-11-14T04:50:08.672Z,94.73
2022-11-14T04:53:14.235Z,87.27
2022-11-14T04:56:23.333Z,88.00
2022-11-14T04:59:29.119Z,109.17
2022-11-14T05:02:34.821Z,95.87
2022-11-14T05:05:42.072Z,105.20
2022-11-14T05:08:48.617Z,90.63
2022-11-14T05:11:55.367Z,85.10
2022-11-14T05:15:01.386Z,95.77
2022-11-14T05:18:06.876Z,83.63
2022-11-14T05:21:14.987Z,79.37
2022-11-14T05:24:20.486Z,80.00
2022-11-14T05:27:26.961Z,89.40
2022-11-14T05:30:32.502Z,81.53
2022-11-14T05:33:38.334Z,81.23
2022-11-14T05:36:43.967Z,82.63
2022-11-14T05:39:49.678Z,87.90
2022-11-14T05:42:57.616Z,94.73
2022-11-14T05:46:04.336Z,86.77
2022-11-14T05:49:09.585Z,87.63
2022-11-14T05:52:15.392Z,85.77
2022-11-14T05:55:24.841Z,86.57
2022-11-14T05:58:32.301Z,85.33
2022-11-14T06:01:37.838Z,89.30
2022-11-14T06:04:43.488Z,84.70
2022-11-14T06:07:49.235Z,86.13
2022-11-14T06:10:54.589Z,80.43
2022-11-14T06:14:06.893Z,75.27
2022-11-14T06:17:14.844Z,97.77
2022-11-14T06:20:21.247Z,83.43
2022-11-14T06:23:27.265Z,94.67
2022-11-14T06:26:34.156Z,91.50
2022-11-14T06:29:41.191Z,91.73
2022-11-14T06:32:46.457Z,86.50
2022-11-14T06:35:52.357Z,106.87
2022-11-14T06:38:58.480Z,95.10
2022-11-14T06:42:04.251Z,100.07
2022-11-14T06:45:12.233Z,84.17
2022-11-14T06:48:17.689Z,83.07
2022-11-14T06:51:22.918Z,87.63
2022-11-14T06:54:28.746Z,83.07
2022-11-14T06:57:34.377Z,87.20
2022-11-14T07:00:41.177Z,90.27
2022-11-14T07:03:46.866Z,76.17
2022-11-14T07:06:52.710Z,76.90
2022-11-14T07:09:59.276Z,88.37
2022-11-14T07:13:04.755Z,94.37
2022-11-14T07:16:11.737Z,86.37
2022-11-14T07:19:17.238Z,95.80
2022-11-14T07:22:22.887Z,87.63
2022-11-14T07:25:28.515Z,88.83
2022-11-14T07:28:35.326Z,89.03
2022-11-14T07:31:43.087Z,83.50
2022-11-14T07:34:48.348Z,76.80
2022-11-14T07:37:53.736Z,76.30
2022-11-14T07:41:03.749Z,66.97
2022-11-14T07:44:09.222Z,82.50
2022-11-14T07:47:16.319Z,78.90
2022-11-14T07:50:22.282Z,80.07
2022-11-14T07:53:28.692Z,75.20
2022-11-14T07:56:34.341Z,80.40
2022-11-14T07:59:39.910Z,75.47
2022-11-14T08:02:46.984Z,69.93
2022-11-14T08:05:52.477Z,73.83
2022-11-14T08:08:58.092Z,81.23
2022-11-14T08:12:04.023Z,83.03
2022-11-14T08:15:11.775Z,75.93
2022-11-14T08:18:18.972Z,79.83
2022-11-14T08:21:24.769Z,76.70
2022-11-14T08:24:30.501Z,73.67
2022-11-14T08:27:36.531Z,75.63
2022-11-14T08:30:42.094Z,93.50
2022-11-14T08:33:50.621Z,81.83
2022-11-14T08:36:57.447Z,81.07
2022-11-14T08:40:02.849Z,78.27
2022-11-14T08:43:12.129Z,83.33
2022-11-14T08:46:17.683Z,66.00
2022-11-14T08:49:24.783Z,81.37
2022-11-14T08:52:30.498Z,81.30
2022-11-14T08:55:36.205Z,74.83
2022-11-14T08:58:41.891Z,79.03
2022-11-14T09:01:47.773Z,75.07
2022-11-14T09:04:54.312Z,61.90
2022-11-14T09:08:00.228Z,77.63
2022-11-14T09:11:08.399Z,66.80
2022-11-14T09:14:15.601Z,65.80
2022-11-14T09:17:20.971Z,72.60
2022-11-14T09:20:33.250Z,67.07
2022-11-14T09:23:41.490Z,68.90
2022-11-14T09:26:55.042Z,71.23
2022-11-14T09:30:02.389Z,81.10
2022-11-14T09:33:11.725Z,61.97
2022-11-14T09:36:19.909Z,71.90
2022-11-14T09:39:25.564Z,67.90
2022-11-14T09:42:47.361Z,55.53
2022-11-14T09:45:54.736Z,63.90
2022-11-14T09:49:00.206Z,64.20
2022-11-14T09:52:17.223Z,64.90
2022-11-14T09:55:25.153Z,52.67
2022-11-14T09:58:31.976Z,59.00
2022-11-14T10:01:49.666Z,59.63
2022-11-14T10:05:10.167Z,62.17
2022-11-14T10:08:43.531Z,56.47
2022-11-14T10:11:53.906Z,62.20
2022-11-14T10:15:11.732Z,59.57
2022-11-14T10:18:35.069Z,60.13
2022-11-14T10:22:06.124Z,62.77
2022-11-14T10:25:23.954Z,54.63
2022-11-14T10:28:43.176Z,51.47
2022-11-14T10:32:02.820Z,61.40
2022-11-14T10:35:15.850Z,61.80
2022-11-14T10:38:27.630Z,58.63
2022-11-14T10:41:55.959Z,58.37
2022-11-14T10:45:06.734Z,56.40
2022-11-14T10:48:18.272Z,57.80
2022-11-14T10:51:30.569Z,53.60
2022-11-14T10:54:43.031Z,60.23
2022-11-14T10:57:49.739Z,55.73
2022-11-14T11:00:55.070Z,59.13
2022-11-14T11:04:14.066Z,51.83
2022-11-14T11:07:41.605Z,50.90
2022-11-14T11:11:06.184Z,63.87
2022-11-14T11:14:19.046Z,59.83
2022-11-14T11:17:29.480Z,51.93
2022-11-14T11:20:39.028Z,56.73
2022-11-14T11:23:51.566Z,55.43
2022-11-14T11:27:14.535Z,56.40
2022-11-14T11:30:24.553Z,53.87
2022-11-14T11:33:31.909Z,57.97
2022-11-14T11:36:41.931Z,61.00
2022-11-14T11:39:51.033Z,58.83
2022-11-14T11:43:37.777Z,51.73
2022-11-14T11:46:36.674Z,50.00
2022-11-14T11:49:53.010Z,51.23
2022-11-14T11:53:13.763Z,54.73
2022-11-14T11:56:25.944Z,51.00
2022-11-14T11:59:38.935Z,52.00
2022-11-14T12:02:50.112Z,49.27
2022-11-14T12:06:05.381Z,51.47
2022-11-14T12:09:19.062Z,48.20
2022-11-14T12:12:39.614Z,52.23
2022-11-14T12:15:53.070Z,52.03
2022-11-14T12:19:16.850Z,50.33
2022-11-14T12:23:01.695Z,52.80
2022-11-14T12:26:21.571Z,50.60
2022-11-14T12:29:48.435Z,52.33
2022-11-14T12:32:59.290Z,49.03
2022-11-14T12:36:11.635Z,51.60
2022-11-14T12:39:26.329Z,43.57
2022-11-14T12:42:33.442Z,53.93
2022-11-14T12:45:59.946Z,53.83
2022-11-14T12:49:42.631Z,49.83
2022-11-14T12:52:51.448Z,51.03
2022-11-14T12:56:08.975Z,47.83
2022-11-14T12:59:39.039Z,56.57
2022-11-14T13:03:21.347Z,46.63
2022-11-14T13:06:34.553Z,52.20
2022-11-14T13:10:05.118Z,50.10
2022-11-14T13:13:30.444Z,43.33
2022-11-14T13:16:53.234Z,46.23
2022-11-14T13:20:16.649Z,44.90
2022-11-14T13:23:59.525Z,43.67
2022-11-14T13:27:45.592Z,48.50
2022-11-14T13:31:07.743Z,47.60
2022-11-14T13:34:47.276Z,48.50
2022-11-14T13:38:13.982Z,42.47
2022-11-14T13:41:52.200Z,44.20
2022-11-14T13:45:32.956Z,46.60
2022-11-14T13:48:53.120Z,49.60
2022-11-14T13:51:58.858Z,45.93
2022-11-14T13:55:05.495Z,52.50
2022-11-14T13:58:25.340Z,44.83
2022-11-14T14:01:50.221Z,46.63
2022-11-14T14:05:05.287Z,43.70
2022-11-14T14:08:20.887Z,47.10
2022-11-14T14:11:43.472Z,46.20
2022-11-14T14:15:08.139Z,44.57
2022-11-14T14:18:26.644Z,46.90
2022-11-14T14:21:45.342Z,48.47
2022-11-14T14:25:00.697Z,44.67
2022-11-14T14:28:15.785Z,50.60
2022-11-14T14:31:23.489Z,43.17
2022-11-14T14:34:32.693Z,42.97
2022-11-14T14:37:38.292Z,47.00
2022-11-14T14:40:44.230Z,47.03
2022-11-14T14:43:56.224Z,40.17
2022-11-14T14:47:44.862Z,44.37
2022-11-14T14:50:53.756Z,39.47
2022-11-14T14:53:59.217Z,42.63
2022-11-14T14:57:07.000Z,45.67
2022-11-14T15:00:24.250Z,45.87
2022-11-14T15:03:36.992Z,41.73
2022-11-14T15:06:50.716Z,44.53
2022-11-14T15:09:59.081Z,38.50
2022-11-14T15:13:05.936Z,46.10
2022-11-14T15:16:12.663Z,41.30
2022-11-14T15:19:21.545Z,40.83
2022-11-14T15:22:30.367Z,43.37
2022-11-14T15:25:36.133Z,48.50
2022-11-14T15:28:42.164Z,41.67
2022-11-14T15:31:50.243Z,41.53
2022-11-14T15:35:09.648Z,42.83
2022-11-14T15:41:50.827Z,41.97
2022-11-14T15:44:57.288Z,37.67
2022-11-14T15:48:17.122Z,42.00
2022-11-14T15:51:45.382Z,45.90
2022-11-14T15:54:58.309Z,40.73
2022-11-14T15:58:27.211Z,44.97
2022-11-14T16:01:30.969Z,39.27
2022-11-14T16:04:44.441Z,38.67
2022-11-14T16:07:53.380Z,42.47
2022-11-14T16:11:00.135Z,41.97
2022-11-14T16:14:06.503Z,40.40
2022-11-14T16:17:15.094Z,44.27
2022-11-14T16:20:22.664Z,40.57
2022-11-14T16:23:28.253Z,43.87
2022-11-14T16:26:36.132Z,49.77
2022-11-14T16:29:41.954Z,42.90
2022-11-14T16:32:49.988Z,42.33
2022-11-14T16:35:55.527Z,45.53
2022-11-14T16:39:03.258Z,41.10
2022-11-14T16:42:12.200Z,40.47
2022-11-14T16:45:32.746Z,42.10
2022-11-14T16:48:42.228Z,44.17
2022-11-14T16:51:51.289Z,35.33
2022-11-14T16:54:57.157Z,42.40
2022-11-14T16:58:03.961Z,40.40
2022-11-14T17:01:20.113Z,39.40
2022-11-14T17:04:27.806Z,37.57
2022-11-14T17:07:33.814Z,39.43
2022-11-14T17:10:41.646Z,33.67
2022-11-14T17:13:48.802Z,42.77
2022-11-14T17:16:55.945Z,39.53
2022-11-14T17:20:02.643Z,42.03
2022-11-14T17:23:08.317Z,40.87
2022-11-14T17:26:14.978Z,38.47
2022-11-14T17:29:22.016Z,33.77
2022-11-14T17:32:27.644Z,37.30
2022-11-14T17:35:35.739Z,38.43
2022-11-14T17:38:41.314Z,43.80
2022-11-14T17:41:46.578Z,42.93
2022-11-14T17:44:54.391Z,41.50
2022-11-14T17:47:59.576Z,47.80
2022-11-14T17:51:06.428Z,47.23
2022-11-14T17:54:12.025Z,39.67
2022-11-14T17:57:17.686Z,40.47
2022-11-14T18:00:24.631Z,43.30
2022-11-14T18:03:30.441Z,45.70
2022-11-14T18:06:35.811Z,40.97
2022-11-14T18:09:41.577Z,43.53
2022-11-14T18:12:47.326Z,43.40
2022-11-14T18:15:54.007Z,46.70
2022-11-14T18:18:59.333Z,48.17
2022-11-14T18:22:05.218Z,44.33
2022-11-14T18:25:10.848Z,52.97
2022-11-14T18:28:16.737Z,51.87
2022-11-14T18:31:24.087Z,60.93
2022-11-14T18:34:29.653Z,55.30
2022-11-14T18:37:35.155Z,53.67
2022-11-14T18:40:45.029Z,49.47
2022-11-14T18:43:50.540Z,47.83
2022-11-14T18:47:00.004Z,52.57
2022-11-14T18:50:06.055Z,49.60
2022-11-14T18:53:11.411Z,54.23
2022-11-14T18:56:19.184Z,52.43
2022-11-14T18:59:24.168Z,54.93
2022-11-14T19:02:30.819Z,55.97
2022-11-14T19:05:36.875Z,58.00
2022-11-14T19:08:42.950Z,45.37
2022-11-14T19:12:06.000Z,48.30
2022-11-14T19:15:12.320Z,51.50
2022-11-14T19:18:19.516Z,56.10
2022-11-14T19:21:25.796Z,47.70
2022-11-14T19:24:31.239Z,54.90
2022-11-14T19:27:36.858Z,53.57
2022-11-14T19:30:42.529Z,56.20
2022-11-14T19:33:49.625Z,64.93
2022-11-14T19:37:00.638Z,63.23
2022-11-14T19:40:07.936Z,62.63
2022-11-14T19:43:13.449Z,61.40
2022-11-14T19:46:18.979Z,54.17
2022-11-14T19:49:25.769Z,51.20
2022-11-14T19:52:31.216Z,57.90
2022-11-14T19:55:37.215Z,60.90
2022-11-14T19:58:44.783Z,58.17
2022-11-14T20:01:55.410Z,54.73
2022-11-14T20:05:02.342Z,58.87
2022-11-14T20:08:09.999Z,57.93
2022-11-14T20:11:15.413Z,56.13
2022-11-14T20:14:20.748Z,68.30
2022-11-14T20:17:26.311Z,49.50
2022-11-14T20:20:35.065Z,57.40
2022-11-14T20:23:40.627Z,59.27
2022-11-14T20:26:46.318Z,60.27
2022-11-14T20:29:51.923Z,54.30
2022-11-14T20:32:56.947Z,61.53
2022-11-14T20:36:05.690Z,62.23
2022-11-14T20:39:11.115Z,69.97
2022-11-14T20:42:16.323Z,60.23
2022-11-14T20:45:22.232Z,59.30
2022-11-14T20:48:29.168Z,57.97
2022-11-14T20:51:36.762Z,67.47
2022-11-14T20:54:42.132Z,64.20
2022-11-14T20:57:47.641Z,71.03
2022-11-14T21:00:54.002Z,65.90
2022-11-14T21:03:59.292Z,64.10
2022-11-14T21:07:06.344Z,64.30
2022-11-14T21:10:30.845Z,59.97
2022-11-14T21:13:55.247Z,59.57
2022-11-14T21:17:01.585Z,70.57
2022-11-14T21:20:08.512Z,63.00
2022-11-14T21:23:15.256Z,64.97
2022-11-14T21:26:23.412Z,59.80
2022-11-14T21:29:28.578Z,58.93
2022-11-14T21:32:36.378Z,53.30
2022-11-14T21:35:42.046Z,65.23
2022-11-14T21:38:49.595Z,54.87
2022-11-14T21:41:55.413Z,65.03
2022-11-14T21:45:01.992Z,57.87
2022-11-14T21:48:07.689Z,56.70
2022-11-14T21:51:14.804Z,57.97
2022-11-14T21:54:21.802Z,50.60
2022-11-14T21:57:27.702Z,48.87
2022-11-14T22:00:33.200Z,54.57
2022-11-14T22:03:56.555Z,54.43
2022-11-14T22:07:03.772Z,60.20
2022-11-14T22:10:11.257Z,50.10
2022-11-14T22:13:17.179Z,60.13
2022-11-14T22:16:22.817Z,51.73
2022-11-14T22:19:28.110Z,61.13
2022-11-14T22:22:34.166Z,50.60
2022-11-14T22:25:41.136Z,51.13
2022-11-14T22:28:47.196Z,53.47
2022-11-14T22:31:55.544Z,49.20
2022-11-14T22:35:00.746Z,49.33
2022-11-14T22:38:05.970Z,44.37
2022-11-14T22:41:15.903Z,44.60
2022-11-14T22:44:21.521Z,44.33
2022-11-14T22:47:27.396Z,48.73
2022-11-14T22:50:33.413Z,49.20
2022-11-14T22:53:39.788Z,50.80
2022-11-14T22:56:46.867Z,52.63
2022-11-14T22:59:52.720Z,49.70
2022-11-14T23:02:58.167Z,52.13
2022-11-14T23:06:07.863Z,51.03
2022-11-14T23:09:13.365Z,47.03
2022-11-14T23:12:20.460Z,41.63
2022-11-14T23:15:26.939Z,44.80
2022-11-14T23:18:32.623Z,45.77
2022-11-14T23:21:38.500Z,48.60
2022-11-14T23:24:43.922Z,45.03
2022-11-14T23:27:51.053Z,48.83
2022-11-14T23:30:56.988Z,51.17
2022-11-14T23:34:02.772Z,47.53
2022-11-14T23:37:08.376Z,48.47
2022-11-14T23:40:14.315Z,45.20
2022-11-14T23:43:21.231Z,43.37
2022-11-14T23:46:26.823Z,39.17
2022-11-14T23:49:32.571Z,43.33
2022-11-14T23:52:38.356Z,44.07
2022-11-14T23:55:43.941Z,47.47
2022-11-14T23:58:50.517Z,52.27
